Time;durP1;ratioP1;P1;durP2;ratioP2;P2;SDS_P1;SDS_P2;PMS_P1;PMS_P2;Temp;Humidity;BMP_temperature;BMP_pressure;BME280_temperature;BME280_humidity;BME280_pressure;Samples;Min_cycle;Max_cycle;Signal;HPM_P1;HPM_P2
2024/01/21 00:01:46;;;;;;;8.37;4.47;;;1.40;1.00;;;;;;5011945;28;20266;-51
2024/01/21 00:04:12;;;;;;;7.03;4.40;;;1.40;1.00;;;;;;5011184;28;20575;-51
2024/01/21 00:06:37;;;;;;;8.60;4.60;;;1.40;1.00;;;;;;5011403;28;20180;-51
2024/01/21 00:09:03;;;;;;;7.47;4.37;;;1.40;1.00;;;;;;5010782;28;20258;-52
2024/01/21 00:11:28;;;;;;;5.13;3.90;;;1.50;1.00;;;;;;5011089;28;20184;-52
2024/01/21 00:13:54;;;;;;;9.20;5.33;;;1.50;1.00;;;;;;5011127;28;20176;-51
2024/01/21 00:16:20;;;;;;;8.50;4.63;;;1.50;1.00;;;;;;5011258;28;20185;-51
2024/01/21 00:18:45;;;;;;;7.13;4.70;;;1.50;1.00;;;;;;5011228;28;20238;-51
2024/01/21 00:21:11;;;;;;;5.63;3.37;;;1.50;1.00;;;;;;5010202;28;20184;-52
2024/01/21 00:23:36;;;;;;;6.23;3.93;;;1.50;1.00;;;;;;5011347;28;20227;-51
2024/01/21 00:26:02;;;;;;;6.90;4.50;;;1.40;1.00;;;;;;5010446;28;20198;-52
2024/01/21 00:28:28;;;;;;;8.00;4.30;;;1.50;1.00;;;;;;5011375;28;20188;-52
2024/01/21 00:30:53;;;;;;;6.13;3.97;;;1.50;1.00;;;;;;5009805;28;20478;-52
2024/01/21 00:33:20;;;;;;;5.03;3.57;;;1.50;1.00;;;;;;5011488;28;20636;-51
2024/01/21 00:35:45;;;;;;;8.37;4.20;;;1.50;1.00;;;;;;5010389;28;20195;-51
2024/01/21 00:38:11;;;;;;;5.87;3.90;;;1.50;1.00;;;;;;5011408;28;20420;-52
2024/01/21 00:40:37;;;;;;;8.73;3.83;;;1.50;1.00;;;;;;5011119;28;20188;-53
2024/01/21 00:43:03;;;;;;;8.93;3.77;;;1.40;1.00;;;;;;5011089;28;20675;-52
2024/01/21 00:45:28;;;;;;;5.70;3.57;;;1.40;1.00;;;;;;5010130;28;20184;-52
2024/01/21 00:47:55;;;;;;;4.80;3.83;;;1.40;1.00;;;;;;5009118;28;20419;-53
2024/01/21 00:50:20;;;;;;;11.67;3.87;;;1.40;1.00;;;;;;5010828;28;20173;-52
2024/01/21 00:52:46;;;;;;;4.67;3.50;;;1.40;1.00;;;;;;5011343;28;20418;-52
2024/01/21 00:55:11;;;;;;;4.60;3.57;;;1.30;1.00;;;;;;5011599;28;20183;-52
2024/01/21 00:57:37;;;;;;;7.30;3.80;;;1.20;1.00;;;;;;5011266;28;20202;-52
2024/01/21 01:00:04;;;;;;;6.70;3.50;;;1.20;1.00;;;;;;5008399;28;20184;-52
2024/01/21 01:02:30;;;;;;;6.27;3.63;;;1.10;1.00;;;;;;5010834;28;20218;-52
2024/01/21 01:04:56;;;;;;;5.40;3.37;;;1.10;1.00;;;;;;5011707;28;20416;-52
2024/01/21 01:07:21;;;;;;;5.73;3.60;;;1.10;1.00;;;;;;5011610;28;20915;-52
2024/01/21 01:09:47;;;;;;;5.20;3.53;;;1.10;1.00;;;;;;5006781;28;20330;-52
2024/01/21 01:12:13;;;;;;;8.30;3.30;;;1.10;1.00;;;;;;5011154;28;20188;-53
2024/01/21 01:14:42;;;;;;;8.10;3.40;;;1.20;1.00;;;;;;5011448;28;20180;-52
2024/01/21 01:17:08;;;;;;;5.47;3.87;;;1.20;1.00;;;;;;5010774;28;20628;-53
2024/01/21 01:19:34;;;;;;;5.50;3.63;;;1.20;1.00;;;;;;5009310;28;20407;-52
2024/01/21 01:21:59;;;;;;;6.60;3.40;;;1.20;1.00;;;;;;5010477;28;21017;-53
2024/01/21 01:24:25;;;;;;;6.77;3.10;;;1.20;1.00;;;;;;5010617;28;20184;-52
2024/01/21 01:26:50;;;;;;;6.17;3.67;;;1.20;1.00;;;;;;5010490;28;20214;-52
2024/01/21 01:29:16;;;;;;;4.70;3.13;;;1.20;1.00;;;;;;5010111;28;20193;-52
2024/01/21 01:31:42;;;;;;;4.93;2.90;;;1.20;1.00;;;;;;5010135;28;20184;-52
2024/01/21 01:34:08;;;;;;;5.93;3.00;;;1.20;1.00;;;;;;5009606;28;20199;-52
2024/01/21 01:36:34;;;;;;;5.17;3.10;;;1.20;1.00;;;;;;5010583;28;20423;-52
2024/01/21 01:38:59;;;;;;;12.03;3.03;;;1.10;1.00;;;;;;5010771;28;20411;-52
2024/01/21 01:41:25;;;;;;;5.33;3.20;;;1.10;1.00;;;;;;5010078;28;20550;-52
2024/01/21 01:43:50;;;;;;;5.37;3.70;;;1.20;1.00;;;;;;5010240;28;20301;-52
2024/01/21 01:46:16;;;;;;;11.17;4.00;;;1.20;1.00;;;;;;5008920;28;20636;-51
2024/01/21 01:48:42;;;;;;;7.17;3.63;;;1.40;1.00;;;;;;5011189;28;20185;-52
2024/01/21 01:51:08;;;;;;;6.00;3.17;;;1.40;1.00;;;;;;5010063;28;20188;-53
2024/01/21 01:53:36;;;;;;;4.80;2.97;;;1.40;1.00;;;;;;5009394;28;20195;-52
2024/01/21 01:56:02;;;;;;;7.00;3.47;;;1.40;1.00;;;;;;5010494;28;20462;-52
2024/01/21 01:58:28;;;;;;;3.60;2.30;;;1.40;1.00;;;;;;5011493;28;20489;-52
2024/01/21 02:00:53;;;;;;;6.47;3.00;;;1.30;1.00;;;;;;5013500;28;20437;-52
2024/01/21 02:03:19;;;;;;;3.33;2.73;;;1.30;1.00;;;;;;5013733;28;20974;-52
2024/01/21 02:05:45;;;;;;;7.17;3.40;;;1.40;1.00;;;;;;5014266;28;20210;-52
2024/01/21 02:08:12;;;;;;;7.03;2.77;;;1.50;1.00;;;;;;5013166;28;20185;-53
2024/01/21 02:10:37;;;;;;;8.50;4.40;;;1.60;1.00;;;;;;5013543;28;20650;-52
2024/01/21 02:13:03;;;;;;;7.70;3.20;;;1.60;1.00;;;;;;5013774;28;20435;-52
2024/01/21 02:15:28;;;;;;;8.00;3.00;;;1.70;1.00;;;;;;5013055;28;20234;-52
2024/01/21 02:17:54;;;;;;;4.43;3.00;;;1.80;1.00;;;;;;5013085;28;20183;-52
2024/01/21 02:20:19;;;;;;;7.00;3.10;;;1.80;1.00;;;;;;5012513;28;20195;-52
2024/01/21 02:22:47;;;;;;;4.17;2.70;;;1.70;1.00;;;;;;5015028;28;20212;-53
2024/01/21 02:25:12;;;;;;;3.77;3.07;;;1.80;1.00;;;;;;5013533;28;20718;-53
2024/01/21 02:27:38;;;;;;;4.40;3.33;;;1.90;1.00;;;;;;5012958;28;20419;-53
2024/01/21 02:30:04;;;;;;;3.47;2.50;;;1.90;1.00;;;;;;5013180;28;20238;-52
2024/01/21 02:32:30;;;;;;;5.20;2.80;;;1.80;1.00;;;;;;5013041;28;20194;-53
2024/01/21 02:34:55;;;;;;;5.30;3.50;;;1.70;1.00;;;;;;5012961;28;20411;-53
2024/01/21 02:37:21;;;;;;;5.03;3.00;;;1.80;1.00;;;;;;5013693;28;20187;-52
2024/01/21 02:39:47;;;;;;;4.00;3.07;;;1.90;1.00;;;;;;5012625;28;20211;-52
2024/01/21 02:42:12;;;;;;;4.60;2.97;;;1.90;1.00;;;;;;5012139;28;20203;-52
2024/01/21 02:44:38;;;;;;;5.03;2.93;;;1.80;1.00;;;;;;5013252;28;20184;-52
2024/01/21 02:47:04;;;;;;;3.63;2.60;;;1.80;1.00;;;;;;5013304;28;20184;-52
2024/01/21 02:49:29;;;;;;;3.33;2.90;;;2.00;1.00;;;;;;5012573;28;20176;-52
2024/01/21 02:51:56;;;;;;;5.73;2.60;;;2.10;1.00;;;;;;5013030;28;20659;-52
2024/01/21 02:54:22;;;;;;;3.67;2.30;;;2.10;1.00;;;;;;5012408;28;20219;-52
2024/01/21 02:56:47;;;;;;;4.67;2.93;;;2.00;1.00;;;;;;5012824;28;20419;-52
2024/01/21 02:59:13;;;;;;;6.47;3.13;;;2.00;1.00;;;;;;5011533;28;20419;-52
2024/01/21 03:01:39;;;;;;;3.43;2.53;;;2.00;1.00;;;;;;5012980;28;20243;-52
2024/01/21 03:04:04;;;;;;;3.60;2.63;;;2.00;1.00;;;;;;5013091;28;20643;-52
2024/01/21 03:06:30;;;;;;;5.23;3.00;;;2.00;1.00;;;;;;5011946;28;20661;-52
2024/01/21 03:08:55;;;;;;;7.70;2.70;;;1.90;1.00;;;;;;5011566;28;20232;-52
2024/01/21 03:11:21;;;;;;;5.00;2.70;;;1.80;1.00;;;;;;5010803;28;20191;-52
2024/01/21 03:13:46;;;;;;;7.60;3.20;;;1.60;1.00;;;;;;5012383;28;20184;-52
2024/01/21 03:16:12;;;;;;;5.40;3.50;;;1.60;1.00;;;;;;5013251;28;20215;-53
2024/01/21 03:18:41;;;;;;;5.53;3.20;;;1.60;1.00;;;;;;5011731;28;20191;-53
2024/01/21 03:21:06;;;;;;;10.77;3.90;;;1.60;1.00;;;;;;5012245;28;20188;-53
2024/01/21 03:23:33;;;;;;;6.90;3.47;;;1.60;1.00;;;;;;5011244;28;20475;-52
2024/01/21 03:25:58;;;;;;;4.83;3.37;;;1.50;1.00;;;;;;5012141;28;20422;-52
2024/01/21 03:28:24;;;;;;;3.97;3.00;;;1.50;1.00;;;;;;5012641;28;20407;-52
2024/01/21 03:30:50;;;;;;;4.60;3.00;;;1.40;1.00;;;;;;5011922;28;20219;-52
2024/01/21 03:33:15;;;;;;;4.53;2.97;;;1.30;1.00;;;;;;5011216;28;20188;-53
2024/01/21 03:35:41;;;;;;;6.17;3.70;;;1.30;1.00;;;;;;5012904;28;20187;-52
2024/01/21 03:38:06;;;;;;;8.20;3.93;;;1.30;1.00;;;;;;5011742;28;20188;-52
2024/01/21 03:40:32;;;;;;;6.03;3.73;;;1.30;1.00;;;;;;5011043;28;20230;-50
2024/01/21 03:42:57;;;;;;;5.70;3.83;;;1.30;1.00;;;;;;5011693;28;20962;-51
2024/01/21 03:45:23;;;;;;;8.87;3.90;;;1.20;1.00;;;;;;5011690;28;20184;-51
2024/01/21 03:47:49;;;;;;;9.40;4.30;;;1.30;1.00;;;;;;5012733;28;20180;-50
2024/01/21 03:50:18;;;;;;;6.63;4.60;;;1.20;1.00;;;;;;5011575;28;20180;-51
2024/01/21 03:52:44;;;;;;;6.70;4.13;;;1.20;1.00;;;;;;5011096;28;20196;-51
2024/01/21 03:55:10;;;;;;;7.57;4.10;;;1.20;1.00;;;;;;5011391;28;20447;-51
2024/01/21 03:57:36;;;;;;;7.73;4.63;;;1.10;1.00;;;;;;5011563;28;20423;-51
2024/01/21 04:00:02;;;;;;;6.63;4.20;;;1.00;1.00;;;;;;5011456;28;20553;-50
2024/01/21 04:02:30;;;;;;;7.83;4.37;;;1.00;1.00;;;;;;5010681;28;20231;-52
2024/01/21 04:04:55;;;;;;;6.83;3.80;;;1.00;1.00;;;;;;5026225;28;20431;-51
2024/01/21 04:07:21;;;;;;;6.03;3.93;;;1.10;1.00;;;;;;5012546;28;20922;-51
2024/01/21 04:09:47;;;;;;;6.37;3.87;;;1.20;1.00;;;;;;5010456;28;20692;-51
2024/01/21 04:12:13;;;;;;;7.63;4.10;;;1.20;1.00;;;;;;5010350;28;21118;-51
2024/01/21 04:14:39;;;;;;;6.87;4.40;;;1.20;1.00;;;;;;5010685;28;20181;-52
2024/01/21 04:17:04;;;;;;;12.30;4.13;;;1.20;1.00;;;;;;5012215;28;20784;-52
2024/01/21 04:19:30;;;;;;;6.47;3.97;;;1.20;1.00;;;;;;5011370;28;20184;-52
2024/01/21 04:21:56;;;;;;;7.20;4.30;;;1.10;1.00;;;;;;5009268;28;20200;-52
2024/01/21 04:24:22;;;;;;;12.20;4.67;;;1.10;1.00;;;;;;5011628;28;20180;-51
2024/01/21 04:26:47;;;;;;;7.37;3.60;;;1.10;1.00;;;;;;5010375;28;20771;-51
2024/01/21 04:29:13;;;;;;;6.80;3.80;;;1.20;1.00;;;;;;5011283;28;20172;-52
2024/01/21 04:31:43;;;;;;;8.20;4.13;;;1.10;1.00;;;;;;5011017;28;20203;-53
2024/01/21 04:34:08;;;;;;;6.37;3.83;;;1.10;1.00;;;;;;5011342;28;20238;-53
2024/01/21 04:36:34;;;;;;;8.37;4.60;;;1.20;1.00;;;;;;5010286;28;20424;-52
2024/01/21 04:38:59;;;;;;;6.83;3.53;;;1.30;1.00;;;;;;5010620;28;20234;-51
2024/01/21 04:41:25;;;;;;;7.43;4.27;;;1.30;1.00;;;;;;5011555;28;20188;-52
2024/01/21 04:43:51;;;;;;;5.83;3.50;;;1.30;1.00;;;;;;5010671;28;20303;-52
2024/01/21 04:46:16;;;;;;;3.97;3.33;;;1.30;1.00;;;;;;5011072;28;20275;-52
2024/01/21 04:48:42;;;;;;;5.63;3.70;;;1.30;1.00;;;;;;5011199;28;20191;-53
2024/01/21 04:51:07;;;;;;;7.47;3.70;;;1.30;1.00;;;;;;5009241;28;20520;-53
2024/01/21 04:53:33;;;;;;;5.90;4.00;;;1.30;1.00;;;;;;5010558;28;20184;-52
2024/01/21 04:55:59;;;;;;;9.00;4.10;;;1.30;1.00;;;;;;5011693;28;20254;-52
2024/01/21 04:58:24;;;;;;;11.50;4.03;;;1.40;1.00;;;;;;5011145;28;20188;-53
2024/01/21 05:00:50;;;;;;;5.43;3.30;;;1.50;1.00;;;;;;5010308;28;20195;-52
2024/01/21 05:03:15;;;;;;;6.07;3.70;;;1.60;1.00;;;;;;5008506;28;20219;-52
2024/01/21 05:05:41;;;;;;;7.97;3.97;;;1.70;1.00;;;;;;5011675;28;20234;-53
2024/01/21 05:08:06;;;;;;;8.67;3.53;;;1.70;1.00;;;;;;5011184;28;20211;-52
2024/01/21 05:10:32;;;;;;;4.77;3.27;;;1.70;1.00;;;;;;5010508;28;20232;-52
2024/01/21 05:12:58;;;;;;;4.50;3.10;;;1.80;1.00;;;;;;5010217;28;20262;-52
2024/01/21 05:15:23;;;;;;;3.90;3.10;;;1.80;1.00;;;;;;5008180;28;20212;-52
2024/01/21 05:17:49;;;;;;;5.20;3.33;;;1.80;1.00;;;;;;5011712;28;20180;-52
2024/01/21 05:20:14;;;;;;;7.10;4.40;;;1.80;1.00;;;;;;5010491;28;20180;-52
2024/01/21 05:22:40;;;;;;;5.07;3.00;;;1.70;1.00;;;;;;5010102;28;20215;-52
2024/01/21 05:25:06;;;;;;;4.80;3.23;;;1.80;1.00;;;;;;5010864;28;20203;-52
2024/01/21 05:27:32;;;;;;;6.97;3.57;;;1.90;1.00;;;;;;5009972;28;20235;-52
2024/01/21 05:29:58;;;;;;;4.30;3.10;;;1.90;1.00;;;;;;5009245;28;20462;-53
2024/01/21 05:32:23;;;;;;;5.57;3.20;;;2.00;1.00;;;;;;5011125;28;20889;-53
2024/01/21 05:34:49;;;;;;;4.43;3.17;;;1.90;1.00;;;;;;5014357;28;20208;-52
2024/01/21 05:37:14;;;;;;;4.23;2.90;;;2.10;1.00;;;;;;5013898;28;20703;-52
2024/01/21 05:39:40;;;;;;;6.50;2.93;;;2.20;1.00;;;;;;5013779;28;20287;-52
2024/01/21 05:42:10;;;;;;;4.30;2.83;;;2.20;1.00;;;;;;5014526;28;20549;-52
2024/01/21 05:44:36;;;;;;;2.93;2.60;;;2.20;1.00;;;;;;5013876;28;20199;-52
2024/01/21 05:47:01;;;;;;;4.20;2.80;;;2.30;1.00;;;;;;5015376;28;20429;-52
2024/01/21 05:49:27;;;;;;;5.20;3.00;;;2.30;1.00;;;;;;5013055;28;20823;-52
2024/01/21 05:51:53;;;;;;;4.40;2.50;;;2.30;1.00;;;;;;5012358;28;20762;-52
2024/01/21 05:54:19;;;;;;;3.73;2.70;;;2.30;1.00;;;;;;5014132;28;20454;-52
2024/01/21 05:56:45;;;;;;;4.37;2.67;;;2.30;1.00;;;;;;5014599;28;20255;-52
2024/01/21 05:59:12;;;;;;;4.17;2.83;;;2.30;1.00;;;;;;5014245;28;20196;-52
2024/01/21 06:01:38;;;;;;;3.37;2.30;;;2.30;1.00;;;;;;5013606;28;20184;-52
2024/01/21 06:04:04;;;;;;;3.50;2.50;;;2.20;1.00;;;;;;5012454;28;20553;-52
2024/01/21 06:06:30;;;;;;;4.07;2.80;;;2.20;1.00;;;;;;5013869;28;20450;-52
2024/01/21 06:08:55;;;;;;;5.50;2.87;;;2.20;1.00;;;;;;5013158;28;20450;-51
2024/01/21 06:11:21;;;;;;;4.17;2.50;;;2.20;1.00;;;;;;5013454;28;20177;-52
2024/01/21 06:13:46;;;;;;;5.97;3.00;;;2.30;1.00;;;;;;5013970;28;20271;-51
2024/01/21 06:16:16;;;;;;;3.27;2.50;;;2.30;1.00;;;;;;5013496;28;20180;-51
2024/01/21 06:18:42;;;;;;;5.40;2.50;;;2.30;1.00;;;;;;5012214;28;20188;-51
2024/01/21 06:21:07;;;;;;;4.60;2.67;;;2.30;1.00;;;;;;5013442;28;20472;-53
2024/01/21 06:23:33;;;;;;;3.47;2.10;;;2.30;1.00;;;;;;5013992;28;20203;-51
2024/01/21 06:25:58;;;;;;;2.27;2.03;;;2.40;1.00;;;;;;5012454;28;20188;-51
2024/01/21 06:28:24;;;;;;;4.53;2.43;;;2.40;1.00;;;;;;5013172;28;20180;-52
2024/01/21 06:30:50;;;;;;;6.50;2.50;;;2.40;1.00;;;;;;5013289;28;20220;-52
2024/01/21 06:33:15;;;;;;;3.70;2.40;;;2.40;1.00;;;;;;5013925;28;20461;-51
2024/01/21 06:35:41;;;;;;;3.50;2.80;;;2.40;1.00;;;;;;5013153;28;20184;-52
2024/01/21 06:38:06;;;;;;;3.50;2.40;;;2.40;1.00;;;;;;5013191;28;20188;-52
2024/01/21 06:40:32;;;;;;;3.20;2.53;;;2.40;1.00;;;;;;5012529;28;20226;-52
2024/01/21 06:42:57;;;;;;;2.80;2.20;;;2.30;1.00;;;;;;5012252;28;20249;-52
2024/01/21 06:45:23;;;;;;;3.90;2.47;;;2.30;1.00;;;;;;5012982;28;20208;-52
2024/01/21 06:47:49;;;;;;;3.00;2.33;;;2.40;1.00;;;;;;5012386;28;20635;-52
2024/01/21 06:50:14;;;;;;;4.27;2.50;;;2.40;1.00;;;;;;5013133;28;20190;-52
2024/01/21 06:52:40;;;;;;;4.43;2.90;;;2.40;1.00;;;;;;5012723;28;20246;-52
2024/01/21 06:55:07;;;;;;;2.70;2.40;;;2.50;1.00;;;;;;5012922;28;20313;-52
2024/01/21 06:57:32;;;;;;;4.73;2.10;;;2.50;1.00;;;;;;5012603;28;20549;-52
2024/01/21 06:59:58;;;;;;;5.13;2.30;;;2.40;1.00;;;;;;5011336;28;20669;-52
2024/01/21 07:02:24;;;;;;;3.57;2.50;;;2.50;1.00;;;;;;5012823;28;20207;-52
2024/01/21 07:04:49;;;;;;;3.80;2.60;;;2.50;1.00;;;;;;5013601;28;20180;-52
2024/01/21 07:07:15;;;;;;;2.63;2.40;;;2.50;1.00;;;;;;5012687;28;20186;-52
2024/01/21 07:09:44;;;;;;;6.23;2.40;;;2.40;1.00;;;;;;5011548;28;20263;-52
2024/01/21 07:12:10;;;;;;;6.93;2.80;;;2.50;1.00;;;;;;5011734;28;20282;-52
2024/01/21 07:14:35;;;;;;;2.53;2.20;;;2.50;1.00;;;;;;5012513;28;20458;-52
2024/01/21 07:17:03;;;;;;;7.67;2.27;;;2.50;1.00;;;;;;5011665;28;20204;-52
2024/01/21 07:19:28;;;;;;;4.63;2.43;;;2.40;1.00;;;;;;5012518;28;20194;-52
2024/01/21 07:21:54;;;;;;;2.93;2.60;;;2.50;1.00;;;;;;5011080;28;20440;-52
2024/01/21 07:24:20;;;;;;;5.70;2.73;;;2.50;1.00;;;;;;5012779;28;20271;-51
2024/01/21 07:26:45;;;;;;;3.60;2.03;;;2.50;1.00;;;;;;5012851;28;20192;-52
2024/01/21 07:29:13;;;;;;;2.80;2.23;;;2.50;1.00;;;;;;5010285;28;20196;-52
2024/01/21 07:31:39;;;;;;;3.37;2.50;;;2.60;1.00;;;;;;5013059;28;20215;-52
2024/01/21 07:34:09;;;;;;;2.90;2.67;;;2.60;1.00;;;;;;5011986;28;20423;-52
2024/01/21 07:36:37;;;;;;;2.40;2.17;;;2.60;1.00;;;;;;5011104;28;20631;-52
2024/01/21 07:39:04;;;;;;;3.97;2.70;;;2.60;1.00;;;;;;5012624;28;20423;-52
2024/01/21 07:41:30;;;;;;;3.40;2.30;;;2.60;1.00;;;;;;5011921;28;20956;-52
2024/01/21 07:43:56;;;;;;;4.43;2.80;;;2.50;1.00;;;;;;5011671;28;20465;-52
2024/01/21 07:46:21;;;;;;;3.93;2.37;;;2.50;1.00;;;;;;5011320;28;20801;-52
2024/01/21 07:48:48;;;;;;;4.63;2.60;;;2.50;1.00;;;;;;5011991;28;20569;-52
2024/01/21 07:51:15;;;;;;;3.10;2.30;;;2.50;1.00;;;;;;5012671;28;20195;-52
2024/01/21 07:53:41;;;;;;;4.10;3.03;;;2.50;1.00;;;;;;5011555;28;20410;-52
2024/01/21 07:56:06;;;;;;;4.20;2.97;;;2.60;1.00;;;;;;5010389;28;20949;-52
2024/01/21 07:58:32;;;;;;;4.00;2.73;;;2.70;1.00;;;;;;5011236;28;20188;-52
2024/01/21 08:00:57;;;;;;;7.40;3.07;;;2.70;1.00;;;;;;5012404;28;20173;-52
2024/01/21 08:03:23;;;;;;;4.00;2.53;;;2.70;1.00;;;;;;5011101;28;20208;-53
2024/01/21 08:05:48;;;;;;;5.90;2.60;;;2.70;1.00;;;;;;5009741;28;20279;-52
2024/01/21 08:08:14;;;;;;;4.63;2.60;;;2.70;1.00;;;;;;5010861;28;20180;-52
2024/01/21 08:10:39;;;;;;;3.43;2.80;;;2.80;1.00;;;;;;5011957;28;20586;-53
2024/01/21 08:13:05;;;;;;;6.47;2.70;;;2.80;1.00;;;;;;5009770;28;20783;-53
2024/01/21 08:15:31;;;;;;;3.20;2.90;;;2.90;1.00;;;;;;5011513;28;20597;-54
2024/01/21 08:17:56;;;;;;;5.17;2.90;;;3.00;1.00;;;;;;5012196;28;20640;-52
2024/01/21 08:20:22;;;;;;;4.10;2.90;;;3.00;1.00;;;;;;5009017;28;20188;-53
2024/01/21 08:22:47;;;;;;;3.27;2.27;;;3.10;1.00;;;;;;5011584;28;20217;-53
2024/01/21 08:25:13;;;;;;;6.67;2.73;;;3.10;1.00;;;;;;5011382;28;20673;-52
2024/01/21 08:27:40;;;;;;;4.40;2.70;;;3.20;1.00;;;;;;5010827;28;20195;-52
2024/01/21 08:30:06;;;;;;;3.50;2.90;;;3.20;1.00;;;;;;5011289;28;20187;-53
2024/01/21 08:32:32;;;;;;;3.50;2.80;;;3.20;1.00;;;;;;5011628;28;20431;-53
2024/01/21 08:34:57;;;;;;;3.33;2.27;;;3.20;1.00;;;;;;5008443;28;20428;-53
2024/01/21 08:37:23;;;;;;;3.43;2.47;;;3.30;1.00;;;;;;5011496;28;20199;-52
2024/01/21 08:39:48;;;;;;;4.27;2.87;;;3.40;1.00;;;;;;5011537;28;20180;-52
2024/01/21 08:42:14;;;;;;;4.70;2.80;;;3.40;1.00;;;;;;5010704;28;20289;-52
2024/01/21 08:44:39;;;;;;;4.77;2.90;;;3.50;1.00;;;;;;5010534;28;20662;-54
2024/01/21 08:47:05;;;;;;;8.50;2.77;;;3.50;1.00;;;;;;5009406;28;20188;-53
2024/01/21 08:49:30;;;;;;;4.97;2.87;;;3.60;1.00;;;;;;5010707;28;20183;-52
2024/01/21 08:51:56;;;;;;;5.60;3.03;;;3.60;1.00;;;;;;5009971;28;20561;-52
2024/01/21 08:54:22;;;;;;;3.27;2.43;;;3.60;1.00;;;;;;5010784;28;20208;-52
2024/01/21 08:56:48;;;;;;;5.70;2.70;;;3.60;1.00;;;;;;5010142;28;20176;-52
2024/01/21 08:59:13;;;;;;;7.53;3.00;;;3.60;1.00;;;;;;5011509;28;20169;-52
2024/01/21 09:01:39;;;;;;;6.23;2.50;;;3.70;1.00;;;;;;5008943;28;20411;-52
2024/01/21 09:04:04;;;;;;;4.53;2.70;;;3.70;1.00;;;;;;5010860;28;20211;-52
2024/01/21 09:06:30;;;;;;;6.10;2.97;;;3.70;1.00;;;;;;5010143;28;20250;-52
2024/01/21 09:08:56;;;;;;;4.97;2.90;;;3.80;1.00;;;;;;5011033;28;20246;-53
2024/01/21 09:11:23;;;;;;;4.47;2.43;;;3.80;1.00;;;;;;5014016;28;20223;-53
2024/01/21 09:13:49;;;;;;;8.50;2.47;;;3.80;1.00;;;;;;5015288;28;20207;-52
2024/01/21 09:16:19;;;;;;;5.77;2.57;;;3.70;1.00;;;;;;5013813;28;20461;-52
2024/01/21 09:18:46;;;;;;;4.90;2.93;;;3.80;1.00;;;;;;5012617;28;20558;-52
2024/01/21 09:21:11;;;;;;;6.03;2.97;;;3.80;1.00;;;;;;5015587;28;20422;-52
2024/01/21 09:23:37;;;;;;;4.60;3.03;;;3.80;1.00;;;;;;5014555;28;20951;-53
2024/01/21 09:26:03;;;;;;;6.73;2.80;;;3.80;1.00;;;;;;5014008;28;20188;-53
2024/01/21 09:28:29;;;;;;;5.57;2.90;;;3.80;1.00;;;;;;5013060;28;20188;-52
2024/01/21 09:30:54;;;;;;;8.80;2.87;;;3.80;1.00;;;;;;5013304;28;20785;-52
2024/01/21 09:33:20;;;;;;;4.10;3.10;;;3.90;1.00;;;;;;5013047;28;20430;-52
2024/01/21 09:35:46;;;;;;;6.00;3.23;;;3.90;1.00;;;;;;5014775;28;20204;-51
2024/01/21 09:38:14;;;;;;;7.73;3.07;;;3.90;1.00;;;;;;5013811;28;20710;-51
2024/01/21 09:40:40;;;;;;;4.50;3.10;;;3.90;1.00;;;;;;5012806;28;20191;-52
2024/01/21 09:43:05;;;;;;;3.60;2.93;;;4.10;1.00;;;;;;5014456;28;20454;-53
2024/01/21 09:45:36;;;;;;;3.63;2.60;;;4.10;1.00;;;;;;5014012;28;20541;-52
2024/01/21 09:48:05;;;;;;;6.97;3.10;;;4.20;1.00;;;;;;5014150;28;20235;-53
2024/01/21 09:50:32;;;;;;;3.80;3.17;;;4.30;1.00;;;;;;5012794;28;20766;-53
2024/01/21 09:52:58;;;;;;;9.43;3.50;;;4.30;1.00;;;;;;5013921;28;20418;-52
2024/01/21 09:55:24;;;;;;;6.23;3.00;;;4.40;1.00;;;;;;5013627;28;20842;-53
2024/01/21 09:57:50;;;;;;;5.83;3.37;;;4.50;1.00;;;;;;5012419;28;20226;-52
2024/01/21 10:00:17;;;;;;;8.50;2.93;;;4.50;1.00;;;;;;5014096;28;20219;-53
2024/01/21 10:02:44;;;;;;;4.27;3.10;;;4.60;1.00;;;;;;5013480;28;20451;-53
2024/01/21 10:05:10;;;;;;;5.07;3.23;;;4.60;1.00;;;;;;5013590;28;20473;-52
2024/01/21 10:07:37;;;;;;;3.20;2.67;;;4.60;1.00;;;;;;5012872;28;20418;-53
2024/01/21 10:10:03;;;;;;;5.37;2.60;;;4.60;1.00;;;;;;5013944;28;20544;-53
2024/01/21 10:12:29;;;;;;;5.70;3.23;;;4.60;1.00;;;;;;5012769;28;20418;-52
2024/01/21 10:14:54;;;;;;;7.03;3.10;;;4.50;1.00;;;;;;5013201;28;20215;-52
2024/01/21 10:17:24;;;;;;;5.93;3.80;;;4.50;1.00;;;;;;5012752;28;20184;-53
2024/01/21 10:19:52;;;;;;;6.47;3.10;;;4.40;1.00;;;;;;5012557;28;20196;-52
2024/01/21 10:22:18;;;;;;;5.23;2.70;;;4.40;1.00;;;;;;5013821;28;20502;-53
2024/01/21 10:24:46;;;;;;;4.53;2.90;;;4.40;1.00;;;;;;5011523;28;20434;-53
2024/01/21 10:27:13;;;;;;;3.47;2.90;;;4.40;1.00;;;;;;5013854;28;20412;-52
2024/01/21 10:29:41;;;;;;;5.97;3.60;;;4.50;1.00;;;;;;5012691;28;20447;-52
2024/01/21 10:32:09;;;;;;;9.00;3.97;;;4.50;1.00;;;;;;5013493;28;20436;-52
2024/01/21 10:34:35;;;;;;;11.13;3.20;;;4.50;1.00;;;;;;5011979;28;20739;-53
2024/01/21 10:37:03;;;;;;;4.90;3.30;;;4.50;1.00;;;;;;5011795;28;20431;-52
2024/01/21 10:39:35;;;;;;;4.67;2.77;;;4.50;1.00;;;;;;5012572;28;20194;-53
2024/01/21 10:42:01;;;;;;;7.43;3.20;;;4.40;1.00;;;;;;5013009;28;20502;-52
2024/01/21 10:44:27;;;;;;;4.60;3.23;;;4.40;1.00;;;;;;5013334;28;20426;-52
2024/01/21 10:46:54;;;;;;;7.57;3.47;;;4.40;1.00;;;;;;5011769;28;20447;-52
2024/01/21 10:49:20;;;;;;;3.97;3.03;;;4.40;1.00;;;;;;5012434;28;20494;-52
2024/01/21 10:51:47;;;;;;;5.00;2.83;;;4.40;1.00;;;;;;5012126;28;20836;-52
2024/01/21 10:54:15;;;;;;;5.13;3.30;;;4.40;1.00;;;;;;5011055;28;20222;-53
2024/01/21 10:56:42;;;;;;;5.40;3.23;;;4.40;1.00;;;;;;5013393;28;20415;-52
2024/01/21 10:59:09;;;;;;;10.03;3.83;;;4.50;1.00;;;;;;5012535;28;20410;-53
2024/01/21 11:01:35;;;;;;;4.37;3.23;;;4.50;1.00;;;;;;5011963;28;20415;-52
2024/01/21 11:04:08;;;;;;;4.43;3.00;;;4.60;1.00;;;;;;5010843;28;20462;-52
2024/01/21 11:06:34;;;;;;;4.20;3.23;;;4.60;1.00;;;;;;5013136;28;20403;-53
2024/01/21 11:09:03;;;;;;;3.83;3.30;;;4.70;1.00;;;;;;5012689;28;20463;-53
2024/01/21 11:11:29;;;;;;;7.10;3.90;;;4.80;1.00;;;;;;5012389;28;20246;-54
2024/01/21 11:13:56;;;;;;;6.13;3.53;;;4.70;1.00;;;;;;5011150;28;20497;-52
2024/01/21 11:16:30;;;;;;;4.10;3.07;;;4.70;1.00;;;;;;5012871;28;20419;-53
2024/01/21 11:19:04;;;;;;;5.10;3.43;;;4.80;1.00;;;;;;5012110;28;20835;-53
2024/01/21 11:21:30;;;;;;;5.80;3.33;;;4.80;1.00;;;;;;5012940;28;20422;-53
2024/01/21 11:24:00;;;;;;;4.07;2.93;;;4.90;1.00;;;;;;5011680;28;20463;-53
2024/01/21 11:26:29;;;;;;;3.80;3.10;;;4.90;1.00;;;;;;5011916;28;21228;-52
2024/01/21 11:29:00;;;;;;;6.23;4.33;;;4.80;1.00;;;;;;5010912;28;20781;-52
2024/01/21 11:31:30;;;;;;;6.30;4.40;;;4.80;1.00;;;;;;5011627;28;20431;-52
2024/01/21 11:34:09;;;;;;;6.00;4.37;;;4.90;1.00;;;;;;5012068;28;20424;-53
2024/01/21 11:36:38;;;;;;;6.30;4.30;;;4.90;1.00;;;;;;5010944;28;20903;-52
2024/01/21 11:39:05;;;;;;;7.33;4.10;;;4.90;1.00;;;;;;5011215;28;20429;-52
2024/01/21 11:41:41;;;;;;;8.93;4.00;;;4.90;1.00;;;;;;5012781;28;20417;-53
2024/01/21 11:44:23;;;;;;;5.63;3.27;;;5.00;1.00;;;;;;5011542;28;20533;-52
2024/01/21 11:46:49;;;;;;;6.73;3.77;;;4.90;1.00;;;;;;5011084;28;20417;-52
2024/01/21 11:49:15;;;;;;;6.47;3.90;;;4.90;1.00;;;;;;5011890;28;20449;-53
2024/01/21 11:51:42;;;;;;;6.70;3.50;;;4.90;1.00;;;;;;5011886;28;20766;-53
2024/01/21 11:54:08;;;;;;;8.47;3.40;;;5.00;1.00;;;;;;5010651;28;21133;-52
2024/01/21 11:56:36;;;;;;;3.20;2.87;;;4.90;1.00;;;;;;5012228;28;20415;-52
2024/01/21 11:59:06;;;;;;;5.67;3.80;;;4.90;1.00;;;;;;5011468;28;20514;-52
2024/01/21 12:01:33;;;;;;;10.37;4.23;;;4.90;1.00;;;;;;5010771;28;20415;-52
2024/01/21 12:04:04;;;;;;;5.73;3.90;;;4.90;1.00;;;;;;5011216;28;20470;-52
2024/01/21 12:06:32;;;;;;;5.07;3.70;;;4.90;1.00;;;;;;5010993;28;21045;-53
2024/01/21 12:09:02;;;;;;;6.40;4.20;;;4.80;1.00;;;;;;5011920;28;20529;-52
2024/01/21 12:11:32;;;;;;;5.20;3.63;;;4.80;1.00;;;;;;5011002;28;20430;-53
2024/01/21 12:13:58;;;;;;;6.30;3.67;;;4.80;1.00;;;;;;5010820;28;20426;-52
2024/01/21 12:16:25;;;;;;;5.53;3.87;;;4.90;1.00;;;;;;5010402;28;20542;-54
2024/01/21 12:18:50;;;;;;;8.80;4.40;;;5.00;1.00;;;;;;5010913;28;20506;-53
2024/01/21 12:21:16;;;;;;;5.50;3.90;;;5.10;1.00;;;;;;5012525;28;20775;-52
2024/01/21 12:23:46;;;;;;;7.43;4.33;;;5.10;1.00;;;;;;5011123;28;20295;-53
2024/01/21 12:26:20;;;;;;;5.50;3.93;;;5.20;1.00;;;;;;5010166;28;20185;-53
2024/01/21 12:29:09;;;;;;;6.27;4.23;;;5.30;1.00;;;;;;5011391;28;20489;-53
2024/01/21 12:31:38;;;;;;;9.60;5.10;;;5.30;1.00;;;;;;5010607;28;20400;-51
2024/01/21 12:34:06;;;;;;;8.20;4.33;;;5.30;1.00;;;;;;5012288;28;20420;-53
2024/01/21 12:36:36;;;;;;;6.87;4.23;;;5.40;1.00;;;;;;5010399;28;20433;-53
2024/01/21 12:39:04;;;;;;;9.27;5.20;;;5.30;1.00;;;;;;5010189;28;20446;-53
2024/01/21 12:41:30;;;;;;;6.23;4.23;;;5.30;1.00;;;;;;5010038;28;20986;-54
2024/01/21 12:43:55;;;;;;;8.23;4.30;;;5.20;1.00;;;;;;5011940;28;20497;-53
2024/01/21 12:46:22;;;;;;;10.37;4.53;;;5.00;1.00;;;;;;5010667;28;20907;-52
2024/01/21 12:48:49;;;;;;;5.50;3.93;;;4.90;1.00;;;;;;5011074;28;20234;-52
2024/01/21 12:51:19;;;;;;;9.37;4.10;;;5.00;1.00;;;;;;5009007;28;20423;-52
2024/01/21 12:53:45;;;;;;;7.07;4.77;;;5.00;1.00;;;;;;5011991;28;20415;-52
2024/01/21 12:56:11;;;;;;;7.80;4.93;;;5.00;1.00;;;;;;5011478;28;20427;-53
2024/01/21 12:58:36;;;;;;;7.93;4.43;;;5.10;1.00;;;;;;5009926;28;20427;-52
2024/01/21 13:01:06;;;;;;;7.57;5.07;;;5.10;1.00;;;;;;5009426;28;20644;-53
2024/01/21 13:03:34;;;;;;;6.40;4.27;;;5.10;1.00;;;;;;5011307;28;20216;-53